sensor_id;sensor_type;location;lat;lon;timestamp;P1;durP1;ratioP1;P2;durP2;ratioP2
15254;SDS011;7730;49.610;11.136;2023-12-14T00:02:05;10.27;;;4.70;;
15254;SDS011;7730;49.610;11.136;2023-12-14T00:04:34;7.38;;;3.80;;
15254;SDS011;7730;49.610;11.136;2023-12-14T00:07:01;8.80;;;3.93;;
15254;SDS011;7730;49.610;11.136;2023-12-14T00:09:28;8.30;;;3.90;;
15254;SDS011;7730;49.610;11.136;2023-12-14T00:11:57;8.30;;;4.05;;
15254;SDS011;7730;49.610;11.136;2023-12-14T00:14:24;8.07;;;3.95;;
15254;SDS011;7730;49.610;11.136;2023-12-14T00:16:51;11.23;;;4.72;;
15254;SDS011;7730;49.610;11.136;2023-12-14T00:19:19;10.68;;;4.97;;
15254;SDS011;7730;49.610;11.136;2023-12-14T00:21:47;12.98;;;5.10;;
15254;SDS011;7730;49.610;11.136;2023-12-14T00:24:19;13.32;;;4.95;;
15254;SDS011;7730;49.610;11.136;2023-12-14T00:26:47;11.98;;;5.05;;
15254;SDS011;7730;49.610;11.136;2023-12-14T00:29:14;12.80;;;5.20;;
15254;SDS011;7730;49.610;11.136;2023-12-14T00:31:41;11.60;;;4.80;;
15254;SDS011;7730;49.610;11.136;2023-12-14T00:34:08;10.95;;;4.75;;
15254;SDS011;7730;49.610;11.136;2023-12-14T00:36:35;10.95;;;4.82;;
15254;SDS011;7730;49.610;11.136;2023-12-14T00:39:06;11.33;;;4.43;;
15254;SDS011;7730;49.610;11.136;2023-12-14T00:41:34;10.32;;;4.40;;
15254;SDS011;7730;49.610;11.136;2023-12-14T00:44:01;10.43;;;4.30;;
15254;SDS011;7730;49.610;11.136;2023-12-14T00:46:28;9.40;;;4.10;;
15254;SDS011;7730;49.610;11.136;2023-12-14T00:48:55;9.27;;;4.10;;
15254;SDS011;7730;49.610;11.136;2023-12-14T00:51:22;10.82;;;4.60;;
15254;SDS011;7730;49.610;11.136;2023-12-14T00:53:51;10.15;;;4.68;;
15254;SDS011;7730;49.610;11.136;2023-12-14T00:56:20;10.07;;;4.32;;
15254;SDS011;7730;49.610;11.136;2023-12-14T00:58:47;9.52;;;4.53;;
15254;SDS011;7730;49.610;11.136;2023-12-14T01:01:14;10.98;;;5.30;;
15254;SDS011;7730;49.610;11.136;2023-12-14T01:03:41;12.18;;;5.50;;
15254;SDS011;7730;49.610;11.136;2023-12-14T01:06:08;13.05;;;5.40;;
15254;SDS011;7730;49.610;11.136;2023-12-14T01:08:35;10.55;;;4.80;;
15254;SDS011;7730;49.610;11.136;2023-12-14T01:11:03;10.35;;;4.88;;
15254;SDS011;7730;49.610;11.136;2023-12-14T01:13:32;11.35;;;5.20;;
15254;SDS011;7730;49.610;11.136;2023-12-14T01:15:59;11.25;;;5.00;;
15254;SDS011;7730;49.610;11.136;2023-12-14T01:18:26;15.63;;;7.63;;
15254;SDS011;7730;49.610;11.136;2023-12-14T01:20:53;15.00;;;7.25;;
15254;SDS011;7730;49.610;11.136;2023-12-14T01:23:20;16.50;;;8.13;;
15254;SDS011;7730;49.610;11.136;2023-12-14T01:25:47;14.02;;;6.88;;
15254;SDS011;7730;49.610;11.136;2023-12-14T01:28:15;12.27;;;5.80;;
15254;SDS011;7730;49.610;11.136;2023-12-14T01:30:45;11.85;;;5.68;;
15254;SDS011;7730;49.610;11.136;2023-12-14T01:33:12;10.82;;;5.63;;
15254;SDS011;7730;49.610;11.136;2023-12-14T01:35:39;11.80;;;5.25;;
15254;SDS011;7730;49.610;11.136;2023-12-14T01:38:06;12.90;;;5.60;;
15254;SDS011;7730;49.610;11.136;2023-12-14T01:40:33;11.87;;;5.40;;
15254;SDS011;7730;49.610;11.136;2023-12-14T01:43:07;12.07;;;5.60;;
15254;SDS011;7730;49.610;11.136;2023-12-14T01:45:35;11.80;;;5.80;;
15254;SDS011;7730;49.610;11.136;2023-12-14T01:48:04;12.13;;;5.78;;
15254;SDS011;7730;49.610;11.136;2023-12-14T01:50:34;11.77;;;5.55;;
15254;SDS011;7730;49.610;11.136;2023-12-14T01:53:02;11.63;;;5.70;;
15254;SDS011;7730;49.610;11.136;2023-12-14T01:55:30;10.07;;;5.40;;
15254;SDS011;7730;49.610;11.136;2023-12-14T01:57:58;12.57;;;5.75;;
15254;SDS011;7730;49.610;11.136;2023-12-14T02:00:27;11.35;;;5.80;;
15254;SDS011;7730;49.610;11.136;2023-12-14T02:02:56;12.98;;;6.10;;
15254;SDS011;7730;49.610;11.136;2023-12-14T02:05:25;12.38;;;5.70;;
15254;SDS011;7730;49.610;11.136;2023-12-14T02:07:53;11.40;;;5.57;;
15254;SDS011;7730;49.610;11.136;2023-12-14T02:10:20;11.40;;;5.53;;
15254;SDS011;7730;49.610;11.136;2023-12-14T02:12:47;11.67;;;5.20;;
15254;SDS011;7730;49.610;11.136;2023-12-14T02:15:14;12.10;;;5.60;;
15254;SDS011;7730;49.610;11.136;2023-12-14T02:17:43;10.90;;;5.38;;
15254;SDS011;7730;49.610;11.136;2023-12-14T02:20:10;13.40;;;5.80;;
15254;SDS011;7730;49.610;11.136;2023-12-14T02:22:49;12.45;;;5.90;;
15254;SDS011;7730;49.610;11.136;2023-12-14T02:25:16;11.60;;;5.75;;
15254;SDS011;7730;49.610;11.136;2023-12-14T02:27:43;12.65;;;6.30;;
15254;SDS011;7730;49.610;11.136;2023-12-14T02:30:10;13.02;;;6.20;;
15254;SDS011;7730;49.610;11.136;2023-12-14T02:32:39;12.63;;;6.05;;
15254;SDS011;7730;49.610;11.136;2023-12-14T02:35:06;13.00;;;6.38;;
15254;SDS011;7730;49.610;11.136;2023-12-14T02:37:36;13.32;;;6.03;;
15254;SDS011;7730;49.610;11.136;2023-12-14T02:40:07;13.25;;;6.40;;
15254;SDS011;7730;49.610;11.136;2023-12-14T02:42:36;14.35;;;6.90;;
15254;SDS011;7730;49.610;11.136;2023-12-14T02:45:03;13.35;;;6.13;;
15254;SDS011;7730;49.610;11.136;2023-12-14T02:47:30;12.73;;;6.25;;
15254;SDS011;7730;49.610;11.136;2023-12-14T02:49:57;12.85;;;6.10;;
15254;SDS011;7730;49.610;11.136;2023-12-14T02:52:27;12.93;;;6.63;;
15254;SDS011;7730;49.610;11.136;2023-12-14T02:54:54;11.70;;;5.97;;
15254;SDS011;7730;49.610;11.136;2023-12-14T02:57:24;12.73;;;6.57;;
15254;SDS011;7730;49.610;11.136;2023-12-14T02:59:52;13.43;;;6.75;;
15254;SDS011;7730;49.610;11.136;2023-12-14T03:02:19;15.20;;;6.90;;
15254;SDS011;7730;49.610;11.136;2023-12-14T03:04:46;14.65;;;6.88;;
15254;SDS011;7730;49.610;11.136;2023-12-14T03:07:13;13.67;;;7.30;;
15254;SDS011;7730;49.610;11.136;2023-12-14T03:09:41;12.67;;;6.47;;
15254;SDS011;7730;49.610;11.136;2023-12-14T03:12:09;13.98;;;7.00;;
15254;SDS011;7730;49.610;11.136;2023-12-14T03:14:42;14.05;;;7.07;;
15254;SDS011;7730;49.610;11.136;2023-12-14T03:17:09;14.35;;;7.00;;
15254;SDS011;7730;49.610;11.136;2023-12-14T03:19:40;14.90;;;7.77;;
15254;SDS011;7730;49.610;11.136;2023-12-14T03:22:10;14.25;;;7.28;;
15254;SDS011;7730;49.610;11.136;2023-12-14T03:24:37;14.53;;;7.10;;
15254;SDS011;7730;49.610;11.136;2023-12-14T03:27:05;12.85;;;6.53;;
15254;SDS011;7730;49.610;11.136;2023-12-14T03:29:32;13.68;;;6.85;;
15254;SDS011;7730;49.610;11.136;2023-12-14T03:32:01;13.98;;;6.55;;
15254;SDS011;7730;49.610;11.136;2023-12-14T03:34:29;13.67;;;6.80;;
15254;SDS011;7730;49.610;11.136;2023-12-14T03:36:56;13.10;;;6.68;;
15254;SDS011;7730;49.610;11.136;2023-12-14T03:39:23;12.25;;;5.90;;
15254;SDS011;7730;49.610;11.136;2023-12-14T03:41:50;12.53;;;6.27;;
15254;SDS011;7730;49.610;11.136;2023-12-14T03:44:18;11.47;;;5.60;;
15254;SDS011;7730;49.610;11.136;2023-12-14T03:46:45;11.32;;;5.78;;
15254;SDS011;7730;49.610;11.136;2023-12-14T03:49:19;14.27;;;6.80;;
15254;SDS011;7730;49.610;11.136;2023-12-14T03:51:46;12.47;;;6.80;;
15254;SDS011;7730;49.610;11.136;2023-12-14T03:54:14;13.57;;;7.47;;
15254;SDS011;7730;49.610;11.136;2023-12-14T03:56:41;13.30;;;7.20;;
15254;SDS011;7730;49.610;11.136;2023-12-14T03:59:08;14.00;;;7.67;;
15254;SDS011;7730;49.610;11.136;2023-12-14T04:01:35;14.55;;;7.55;;
15254;SDS011;7730;49.610;11.136;2023-12-14T04:04:05;14.40;;;7.60;;
15254;SDS011;7730;49.610;11.136;2023-12-14T04:06:35;13.60;;;7.20;;
15254;SDS011;7730;49.610;11.136;2023-12-14T04:09:09;13.52;;;7.47;;
15254;SDS011;7730;49.610;11.136;2023-12-14T04:11:37;14.15;;;7.55;;
15254;SDS011;7730;49.610;11.136;2023-12-14T04:14:04;13.83;;;7.47;;
15254;SDS011;7730;49.610;11.136;2023-12-14T04:16:31;14.07;;;7.97;;
15254;SDS011;7730;49.610;11.136;2023-12-14T04:18:58;14.90;;;8.17;;
15254;SDS011;7730;49.610;11.136;2023-12-14T04:21:26;15.00;;;8.48;;
15254;SDS011;7730;49.610;11.136;2023-12-14T04:23:55;14.85;;;8.68;;
15254;SDS011;7730;49.610;11.136;2023-12-14T04:26:22;14.38;;;7.80;;
15254;SDS011;7730;49.610;11.136;2023-12-14T04:28:49;15.13;;;7.93;;
15254;SDS011;7730;49.610;11.136;2023-12-14T04:31:16;16.13;;;8.27;;
15254;SDS011;7730;49.610;11.136;2023-12-14T04:33:43;14.83;;;8.00;;
15254;SDS011;7730;49.610;11.136;2023-12-14T04:36:10;14.30;;;7.90;;
15254;SDS011;7730;49.610;11.136;2023-12-14T04:38:37;15.45;;;8.80;;
15254;SDS011;7730;49.610;11.136;2023-12-14T04:41:09;15.83;;;8.50;;
15254;SDS011;7730;49.610;11.136;2023-12-14T04:43:37;15.15;;;8.70;;
15254;SDS011;7730;49.610;11.136;2023-12-14T04:46:04;16.67;;;9.27;;
15254;SDS011;7730;49.610;11.136;2023-12-14T04:48:32;15.60;;;8.87;;
15254;SDS011;7730;49.610;11.136;2023-12-14T04:50:59;16.30;;;9.50;;
15254;SDS011;7730;49.610;11.136;2023-12-14T04:53:26;15.57;;;8.63;;
15254;SDS011;7730;49.610;11.136;2023-12-14T04:55:54;15.50;;;9.27;;
15254;SDS011;7730;49.610;11.136;2023-12-14T04:58:22;16.85;;;9.18;;
15254;SDS011;7730;49.610;11.136;2023-12-14T05:00:50;16.80;;;9.55;;
15254;SDS011;7730;49.610;11.136;2023-12-14T05:03:18;15.65;;;9.00;;
15254;SDS011;7730;49.610;11.136;2023-12-14T05:05:45;16.05;;;9.10;;
15254;SDS011;7730;49.610;11.136;2023-12-14T05:08:12;16.02;;;9.00;;
15254;SDS011;7730;49.610;11.136;2023-12-14T05:10:39;16.40;;;9.52;;
15254;SDS011;7730;49.610;11.136;2023-12-14T05:13:06;16.67;;;9.30;;
15254;SDS011;7730;49.610;11.136;2023-12-14T05:15:37;16.40;;;9.27;;
15254;SDS011;7730;49.610;11.136;2023-12-14T05:18:04;17.52;;;9.77;;
15254;SDS011;7730;49.610;11.136;2023-12-14T05:20:31;16.77;;;9.18;;
15254;SDS011;7730;49.610;11.136;2023-12-14T05:23:00;17.15;;;9.57;;
15254;SDS011;7730;49.610;11.136;2023-12-14T05:25:29;18.02;;;9.70;;
15254;SDS011;7730;49.610;11.136;2023-12-14T05:27:56;17.83;;;9.70;;
15254;SDS011;7730;49.610;11.136;2023-12-14T05:30:31;16.60;;;9.73;;
15254;SDS011;7730;49.610;11.136;2023-12-14T05:33:00;17.92;;;10.00;;
15254;SDS011;7730;49.610;11.136;2023-12-14T05:35:28;17.08;;;9.95;;
15254;SDS011;7730;49.610;11.136;2023-12-14T05:37:55;17.77;;;9.65;;
15254;SDS011;7730;49.610;11.136;2023-12-14T05:40:22;16.13;;;9.60;;
15254;SDS011;7730;49.610;11.136;2023-12-14T05:42:50;19.10;;;9.85;;
15254;SDS011;7730;49.610;11.136;2023-12-14T05:45:17;16.88;;;9.70;;
15254;SDS011;7730;49.610;11.136;2023-12-14T05:47:46;16.45;;;9.38;;
15254;SDS011;7730;49.610;11.136;2023-12-14T05:50:14;17.10;;;9.47;;
15254;SDS011;7730;49.610;11.136;2023-12-14T05:52:42;15.55;;;9.27;;
15254;SDS011;7730;49.610;11.136;2023-12-14T05:55:11;16.95;;;9.88;;
15254;SDS011;7730;49.610;11.136;2023-12-14T05:57:38;15.55;;;8.82;;
15254;SDS011;7730;49.610;11.136;2023-12-14T06:00:05;16.55;;;9.68;;
15254;SDS011;7730;49.610;11.136;2023-12-14T06:02:33;16.75;;;9.38;;
15254;SDS011;7730;49.610;11.136;2023-12-14T06:05:02;16.95;;;9.30;;
15254;SDS011;7730;49.610;11.136;2023-12-14T06:07:35;15.85;;;9.05;;
15254;SDS011;7730;49.610;11.136;2023-12-14T06:10:05;15.95;;;9.20;;
15254;SDS011;7730;49.610;11.136;2023-12-14T06:12:34;16.73;;;9.82;;
15254;SDS011;7730;49.610;11.136;2023-12-14T06:15:01;16.83;;;9.47;;
15254;SDS011;7730;49.610;11.136;2023-12-14T06:17:28;15.90;;;9.10;;
15254;SDS011;7730;49.610;11.136;2023-12-14T06:19:56;16.20;;;9.63;;
15254;SDS011;7730;49.610;11.136;2023-12-14T06:22:24;17.67;;;10.35;;
15254;SDS011;7730;49.610;11.136;2023-12-14T06:24:52;16.27;;;9.30;;
15254;SDS011;7730;49.610;11.136;2023-12-14T06:27:19;16.20;;;9.60;;
15254;SDS011;7730;49.610;11.136;2023-12-14T06:29:48;17.67;;;9.98;;
15254;SDS011;7730;49.610;11.136;2023-12-14T06:32:16;16.52;;;9.68;;
15254;SDS011;7730;49.610;11.136;2023-12-14T06:34:43;14.95;;;9.15;;
15254;SDS011;7730;49.610;11.136;2023-12-14T06:37:10;16.08;;;9.57;;
15254;SDS011;7730;49.610;11.136;2023-12-14T06:39:37;16.42;;;9.30;;
15254;SDS011;7730;49.610;11.136;2023-12-14T06:42:07;17.87;;;9.90;;
15254;SDS011;7730;49.610;11.136;2023-12-14T06:44:36;16.57;;;10.13;;
15254;SDS011;7730;49.610;11.136;2023-12-14T06:47:03;18.67;;;10.10;;
15254;SDS011;7730;49.610;11.136;2023-12-14T06:49:32;19.00;;;10.32;;
15254;SDS011;7730;49.610;11.136;2023-12-14T06:51:59;17.17;;;10.02;;
15254;SDS011;7730;49.610;11.136;2023-12-14T06:54:26;16.33;;;9.97;;
15254;SDS011;7730;49.610;11.136;2023-12-14T06:56:54;19.57;;;10.63;;
15254;SDS011;7730;49.610;11.136;2023-12-14T06:59:23;17.05;;;9.73;;
15254;SDS011;7730;49.610;11.136;2023-12-14T07:01:52;16.53;;;9.77;;
15254;SDS011;7730;49.610;11.136;2023-12-14T07:04:20;18.83;;;10.90;;
15254;SDS011;7730;49.610;11.136;2023-12-14T07:06:50;17.50;;;10.30;;
15254;SDS011;7730;49.610;11.136;2023-12-14T07:09:18;18.05;;;10.88;;
15254;SDS011;7730;49.610;11.136;2023-12-14T07:11:45;17.17;;;10.70;;
15254;SDS011;7730;49.610;11.136;2023-12-14T07:14:12;17.65;;;9.90;;
15254;SDS011;7730;49.610;11.136;2023-12-14T07:16:42;17.20;;;10.85;;
15254;SDS011;7730;49.610;11.136;2023-12-14T07:19:09;16.53;;;10.10;;
15254;SDS011;7730;49.610;11.136;2023-12-14T07:21:36;17.27;;;10.18;;
15254;SDS011;7730;49.610;11.136;2023-12-14T07:24:04;16.50;;;9.80;;
15254;SDS011;7730;49.610;11.136;2023-12-14T07:26:31;16.87;;;10.10;;
15254;SDS011;7730;49.610;11.136;2023-12-14T07:28:59;17.13;;;10.23;;
15254;SDS011;7730;49.610;11.136;2023-12-14T07:31:26;17.80;;;10.57;;
15254;SDS011;7730;49.610;11.136;2023-12-14T07:33:55;18.63;;;10.70;;
15254;SDS011;7730;49.610;11.136;2023-12-14T07:36:29;19.25;;;10.85;;
15254;SDS011;7730;49.610;11.136;2023-12-14T07:38:56;18.80;;;10.55;;
15254;SDS011;7730;49.610;11.136;2023-12-14T07:41:26;19.37;;;10.50;;
15254;SDS011;7730;49.610;11.136;2023-12-14T07:43:54;18.45;;;10.35;;
15254;SDS011;7730;49.610;11.136;2023-12-14T07:46:21;17.45;;;10.13;;
15254;SDS011;7730;49.610;11.136;2023-12-14T07:48:48;16.63;;;9.88;;
15254;SDS011;7730;49.610;11.136;2023-12-14T07:51:17;17.50;;;9.73;;
15254;SDS011;7730;49.610;11.136;2023-12-14T07:53:44;16.87;;;10.23;;
15254;SDS011;7730;49.610;11.136;2023-12-14T07:56:11;18.30;;;9.90;;
15254;SDS011;7730;49.610;11.136;2023-12-14T07:58:38;18.48;;;10.00;;
15254;SDS011;7730;49.610;11.136;2023-12-14T08:01:06;17.03;;;9.37;;
15254;SDS011;7730;49.610;11.136;2023-12-14T08:03:37;17.67;;;10.53;;
15254;SDS011;7730;49.610;11.136;2023-12-14T08:06:05;19.07;;;10.40;;
15254;SDS011;7730;49.610;11.136;2023-12-14T08:08:36;18.70;;;10.40;;
15254;SDS011;7730;49.610;11.136;2023-12-14T08:11:04;17.35;;;10.10;;
15254;SDS011;7730;49.610;11.136;2023-12-14T08:13:31;17.40;;;10.30;;
15254;SDS011;7730;49.610;11.136;2023-12-14T08:15:58;23.85;;;11.18;;
15254;SDS011;7730;49.610;11.136;2023-12-14T08:18:25;23.20;;;9.98;;
15254;SDS011;7730;49.610;11.136;2023-12-14T08:20:52;18.33;;;9.70;;
15254;SDS011;7730;49.610;11.136;2023-12-14T08:23:20;16.33;;;9.52;;
15254;SDS011;7730;49.610;11.136;2023-12-14T08:25:49;17.77;;;10.00;;
15254;SDS011;7730;49.610;11.136;2023-12-14T08:28:16;18.08;;;10.15;;
15254;SDS011;7730;49.610;11.136;2023-12-14T08:30:45;23.40;;;10.23;;
15254;SDS011;7730;49.610;11.136;2023-12-14T08:33:14;24.50;;;10.43;;
15254;SDS011;7730;49.610;11.136;2023-12-14T08:35:41;35.65;;;13.55;;
15254;SDS011;7730;49.610;11.136;2023-12-14T08:38:08;21.45;;;9.85;;
15254;SDS011;7730;49.610;11.136;2023-12-14T08:40:35;16.70;;;9.38;;
15254;SDS011;7730;49.610;11.136;2023-12-14T08:43:04;17.20;;;9.05;;
15254;SDS011;7730;49.610;11.136;2023-12-14T08:45:31;18.23;;;10.47;;
15254;SDS011;7730;49.610;11.136;2023-12-14T08:47:59;17.20;;;10.73;;
15254;SDS011;7730;49.610;11.136;2023-12-14T08:50:28;17.50;;;9.60;;
15254;SDS011;7730;49.610;11.136;2023-12-14T08:52:57;16.70;;;9.67;;
15254;SDS011;7730;49.610;11.136;2023-12-14T08:55:24;18.43;;;10.47;;
15254;SDS011;7730;49.610;11.136;2023-12-14T08:57:52;18.20;;;10.70;;
15254;SDS011;7730;49.610;11.136;2023-12-14T09:00:24;18.07;;;10.77;;
15254;SDS011;7730;49.610;11.136;2023-12-14T09:02:51;17.70;;;10.00;;
15254;SDS011;7730;49.610;11.136;2023-12-14T09:05:20;18.70;;;11.10;;
15254;SDS011;7730;49.610;11.136;2023-12-14T09:07:48;17.57;;;10.40;;
15254;SDS011;7730;49.610;11.136;2023-12-14T09:10:17;17.10;;;10.38;;
15254;SDS011;7730;49.610;11.136;2023-12-14T09:12:46;17.10;;;10.20;;
15254;SDS011;7730;49.610;11.136;2023-12-14T09:15:15;17.77;;;10.07;;
15254;SDS011;7730;49.610;11.136;2023-12-14T09:17:46;17.43;;;9.57;;
15254;SDS011;7730;49.610;11.136;2023-12-14T09:20:13;16.57;;;8.30;;
15254;SDS011;7730;49.610;11.136;2023-12-14T09:22:40;15.73;;;8.65;;
15254;SDS011;7730;49.610;11.136;2023-12-14T09:25:08;16.10;;;9.02;;
15254;SDS011;7730;49.610;11.136;2023-12-14T09:27:37;15.13;;;8.57;;
15254;SDS011;7730;49.610;11.136;2023-12-14T09:30:04;17.13;;;9.60;;
15254;SDS011;7730;49.610;11.136;2023-12-14T09:32:32;15.88;;;8.88;;
15254;SDS011;7730;49.610;11.136;2023-12-14T09:35:00;17.35;;;9.30;;
15254;SDS011;7730;49.610;11.136;2023-12-14T09:37:27;14.93;;;8.00;;
15254;SDS011;7730;49.610;11.136;2023-12-14T09:39:54;16.52;;;9.18;;
15254;SDS011;7730;49.610;11.136;2023-12-14T09:42:21;15.83;;;8.90;;
15254;SDS011;7730;49.610;11.136;2023-12-14T09:44:49;17.20;;;11.18;;
15254;SDS011;7730;49.610;11.136;2023-12-14T09:47:17;18.25;;;9.95;;
15254;SDS011;7730;49.610;11.136;2023-12-14T09:49:44;18.27;;;9.48;;
15254;SDS011;7730;49.610;11.136;2023-12-14T09:52:13;23.23;;;10.25;;
15254;SDS011;7730;49.610;11.136;2023-12-14T09:54:40;19.25;;;9.93;;
15254;SDS011;7730;49.610;11.136;2023-12-14T09:57:07;15.60;;;9.05;;
15254;SDS011;7730;49.610;11.136;2023-12-14T09:59:34;18.20;;;9.32;;
15254;SDS011;7730;49.610;11.136;2023-12-14T10:04:43;16.85;;;9.60;;
15254;SDS011;7730;49.610;11.136;2023-12-14T10:07:10;17.33;;;9.67;;
15254;SDS011;7730;49.610;11.136;2023-12-14T10:09:38;16.40;;;9.55;;
15254;SDS011;7730;49.610;11.136;2023-12-14T10:12:07;17.90;;;10.02;;
15254;SDS011;7730;49.610;11.136;2023-12-14T10:14:35;17.42;;;9.25;;
15254;SDS011;7730;49.610;11.136;2023-12-14T10:17:13;17.17;;;9.63;;
15254;SDS011;7730;49.610;11.136;2023-12-14T10:19:42;17.00;;;9.40;;
15254;SDS011;7730;49.610;11.136;2023-12-14T10:22:09;17.13;;;9.82;;
15254;SDS011;7730;49.610;11.136;2023-12-14T10:24:36;17.40;;;9.40;;
15254;SDS011;7730;49.610;11.136;2023-12-14T10:27:06;17.58;;;9.65;;
15254;SDS011;7730;49.610;11.136;2023-12-14T10:29:33;16.70;;;9.20;;
15254;SDS011;7730;49.610;11.136;2023-12-14T10:32:03;15.93;;;9.33;;
15254;SDS011;7730;49.610;11.136;2023-12-14T10:34:33;16.95;;;10.20;;
15254;SDS011;7730;49.610;11.136;2023-12-14T10:37:00;16.38;;;9.98;;
15254;SDS011;7730;49.610;11.136;2023-12-14T10:39:28;17.67;;;10.23;;
15254;SDS011;7730;49.610;11.136;2023-12-14T10:41:56;23.03;;;10.60;;
15254;SDS011;7730;49.610;11.136;2023-12-14T10:44:25;26.17;;;10.70;;
15254;SDS011;7730;49.610;11.136;2023-12-14T10:46:52;18.60;;;10.52;;
15254;SDS011;7730;49.610;11.136;2023-12-14T10:49:22;16.50;;;9.23;;
15254;SDS011;7730;49.610;11.136;2023-12-14T10:51:50;16.42;;;9.85;;
15254;SDS011;7730;49.610;11.136;2023-12-14T10:54:20;17.20;;;10.52;;
15254;SDS011;7730;49.610;11.136;2023-12-14T10:56:47;16.98;;;10.18;;
15254;SDS011;7730;49.610;11.136;2023-12-14T10:59:15;15.50;;;9.80;;
15254;SDS011;7730;49.610;11.136;2023-12-14T11:01:44;15.48;;;9.48;;
15254;SDS011;7730;49.610;11.136;2023-12-14T11:04:11;15.03;;;8.70;;
15254;SDS011;7730;49.610;11.136;2023-12-14T11:06:42;16.77;;;9.50;;
15254;SDS011;7730;49.610;11.136;2023-12-14T11:09:12;14.90;;;8.48;;
15254;SDS011;7730;49.610;11.136;2023-12-14T11:11:41;14.80;;;8.30;;
15254;SDS011;7730;49.610;11.136;2023-12-14T11:14:10;15.27;;;8.77;;
15254;SDS011;7730;49.610;11.136;2023-12-14T11:16:37;15.55;;;9.27;;
15254;SDS011;7730;49.610;11.136;2023-12-14T11:19:25;16.33;;;9.20;;
15254;SDS011;7730;49.610;11.136;2023-12-14T11:22:12;16.20;;;8.90;;
15254;SDS011;7730;49.610;11.136;2023-12-14T11:24:42;16.23;;;10.05;;
15254;SDS011;7730;49.610;11.136;2023-12-14T11:27:09;17.50;;;9.38;;
15254;SDS011;7730;49.610;11.136;2023-12-14T11:29:37;15.60;;;9.23;;
15254;SDS011;7730;49.610;11.136;2023-12-14T11:32:05;16.00;;;9.45;;
15254;SDS011;7730;49.610;11.136;2023-12-14T11:34:34;16.10;;;9.85;;
15254;SDS011;7730;49.610;11.136;2023-12-14T11:37:02;16.77;;;10.35;;
15254;SDS011;7730;49.610;11.136;2023-12-14T11:39:31;18.83;;;10.85;;
15254;SDS011;7730;49.610;11.136;2023-12-14T11:41:58;17.25;;;10.60;;
15254;SDS011;7730;49.610;11.136;2023-12-14T11:44:26;16.52;;;10.38;;
15254;SDS011;7730;49.610;11.136;2023-12-14T11:46:53;18.83;;;11.20;;
15254;SDS011;7730;49.610;11.136;2023-12-14T11:49:20;18.95;;;12.60;;
15254;SDS011;7730;49.610;11.136;2023-12-14T11:51:48;18.23;;;11.70;;
15254;SDS011;7730;49.610;11.136;2023-12-14T11:54:17;19.35;;;11.68;;
15254;SDS011;7730;49.610;11.136;2023-12-14T11:56:45;18.27;;;11.48;;
15254;SDS011;7730;49.610;11.136;2023-12-14T11:59:14;19.20;;;10.95;;
15254;SDS011;7730;49.610;11.136;2023-12-14T12:01:56;22.30;;;13.23;;
15254;SDS011;7730;49.610;11.136;2023-12-14T12:04:23;20.40;;;12.18;;
15254;SDS011;7730;49.610;11.136;2023-12-14T12:06:59;22.02;;;11.80;;
15254;SDS011;7730;49.610;11.136;2023-12-14T12:09:33;19.77;;;11.10;;
15254;SDS011;7730;49.610;11.136;2023-12-14T12:12:05;18.45;;;10.45;;
15254;SDS011;7730;49.610;11.136;2023-12-14T12:14:33;102.28;;;21.33;;
15254;SDS011;7730;49.610;11.136;2023-12-14T12:17:00;21.15;;;10.82;;
15254;SDS011;7730;49.610;11.136;2023-12-14T12:19:29;29.33;;;12.43;;
15254;SDS011;7730;49.610;11.136;2023-12-14T12:21:56;31.00;;;12.27;;
15254;SDS011;7730;49.610;11.136;2023-12-14T12:24:24;23.40;;;11.32;;
15254;SDS011;7730;49.610;11.136;2023-12-14T12:26:51;16.95;;;10.25;;
15254;SDS011;7730;49.610;11.136;2023-12-14T12:29:18;16.10;;;9.43;;
15254;SDS011;7730;49.610;11.136;2023-12-14T12:31:47;16.30;;;9.75;;
15254;SDS011;7730;49.610;11.136;2023-12-14T12:34:14;18.05;;;9.40;;
15254;SDS011;7730;49.610;11.136;2023-12-14T12:36:41;18.70;;;9.93;;
15254;SDS011;7730;49.610;11.136;2023-12-14T12:39:08;16.45;;;9.40;;
15254;SDS011;7730;49.610;11.136;2023-12-14T12:41:36;16.57;;;9.43;;
15254;SDS011;7730;49.610;11.136;2023-12-14T12:44:03;16.02;;;9.18;;
15254;SDS011;7730;49.610;11.136;2023-12-14T12:46:32;17.13;;;9.13;;
15254;SDS011;7730;49.610;11.136;2023-12-14T12:48:59;23.10;;;10.15;;
15254;SDS011;7730;49.610;11.136;2023-12-14T12:51:27;50.88;;;14.02;;
15254;SDS011;7730;49.610;11.136;2023-12-14T12:53:54;17.85;;;9.50;;
15254;SDS011;7730;49.610;11.136;2023-12-14T12:56:22;15.38;;;9.43;;
15254;SDS011;7730;49.610;11.136;2023-12-14T12:58:50;15.20;;;8.20;;
15254;SDS011;7730;49.610;11.136;2023-12-14T13:01:20;14.32;;;8.35;;
15254;SDS011;7730;49.610;11.136;2023-12-14T13:03:51;15.18;;;7.95;;
15254;SDS011;7730;49.610;11.136;2023-12-14T13:06:18;13.52;;;6.95;;
15254;SDS011;7730;49.610;11.136;2023-12-14T13:08:45;16.15;;;7.65;;
15254;SDS011;7730;49.610;11.136;2023-12-14T13:11:12;13.65;;;7.35;;
15254;SDS011;7730;49.610;11.136;2023-12-14T13:13:39;13.80;;;7.00;;
15254;SDS011;7730;49.610;11.136;2023-12-14T13:16:10;14.25;;;7.57;;
15254;SDS011;7730;49.610;11.136;2023-12-14T13:18:39;15.38;;;7.30;;
15254;SDS011;7730;49.610;11.136;2023-12-14T13:21:07;16.40;;;7.35;;
15254;SDS011;7730;49.610;11.136;2023-12-14T13:23:34;13.90;;;6.82;;
15254;SDS011;7730;49.610;11.136;2023-12-14T13:26:05;15.50;;;6.70;;
15254;SDS011;7730;49.610;11.136;2023-12-14T13:28:35;13.98;;;5.43;;
15254;SDS011;7730;49.610;11.136;2023-12-14T13:31:02;20.75;;;6.53;;
15254;SDS011;7730;49.610;11.136;2023-12-14T13:33:30;11.50;;;5.20;;
15254;SDS011;7730;49.610;11.136;2023-12-14T13:35:57;11.57;;;4.90;;
15254;SDS011;7730;49.610;11.136;2023-12-14T13:38:24;10.15;;;4.78;;
15254;SDS011;7730;49.610;11.136;2023-12-14T13:40:51;10.90;;;4.72;;
15254;SDS011;7730;49.610;11.136;2023-12-14T13:43:20;14.00;;;5.18;;
15254;SDS011;7730;49.610;11.136;2023-12-14T13:45:47;10.27;;;4.68;;
15254;SDS011;7730;49.610;11.136;2023-12-14T13:48:17;9.55;;;4.40;;
15254;SDS011;7730;49.610;11.136;2023-12-14T13:50:46;10.73;;;4.35;;
15254;SDS011;7730;49.610;11.136;2023-12-14T13:53:13;8.47;;;4.00;;
15254;SDS011;7730;49.610;11.136;2023-12-14T13:55:40;8.25;;;4.30;;
15254;SDS011;7730;49.610;11.136;2023-12-14T13:58:07;8.95;;;4.10;;
15254;SDS011;7730;49.610;11.136;2023-12-14T14:00:34;7.97;;;4.10;;
15254;SDS011;7730;49.610;11.136;2023-12-14T14:03:02;10.13;;;4.80;;
15254;SDS011;7730;49.610;11.136;2023-12-14T14:05:29;11.35;;;4.43;;
15254;SDS011;7730;49.610;11.136;2023-12-14T14:07:58;8.67;;;3.90;;
15254;SDS011;7730;49.610;11.136;2023-12-14T14:10:26;8.00;;;3.95;;
15254;SDS011;7730;49.610;11.136;2023-12-14T14:12:53;8.95;;;4.65;;
15254;SDS011;7730;49.610;11.136;2023-12-14T14:15:21;8.98;;;4.30;;
15254;SDS011;7730;49.610;11.136;2023-12-14T14:17:50;8.57;;;4.00;;
15254;SDS011;7730;49.610;11.136;2023-12-14T14:20:19;8.00;;;4.25;;
15254;SDS011;7730;49.610;11.136;2023-12-14T14:22:47;9.80;;;4.33;;
15254;SDS011;7730;49.610;11.136;2023-12-14T14:25:15;10.20;;;4.60;;
15254;SDS011;7730;49.610;11.136;2023-12-14T14:27:43;8.90;;;4.07;;
15254;SDS011;7730;49.610;11.136;2023-12-14T14:30:12;9.17;;;4.40;;
15254;SDS011;7730;49.610;11.136;2023-12-14T14:32:41;9.50;;;4.40;;
15254;SDS011;7730;49.610;11.136;2023-12-14T14:35:08;10.88;;;4.60;;
15254;SDS011;7730;49.610;11.136;2023-12-14T14:37:36;10.15;;;4.90;;
15254;SDS011;7730;49.610;11.136;2023-12-14T14:40:03;10.57;;;4.40;;
15254;SDS011;7730;49.610;11.136;2023-12-14T14:42:32;8.90;;;4.63;;